createdAt,value
2022-09-15T00:03:40.216Z,19.15
2022-09-15T00:06:12.328Z,15.93
2022-09-15T00:08:44.691Z,16.42
2022-09-15T00:11:22.275Z,13.27
2022-09-15T00:13:56.791Z,13.05
2022-09-15T00:16:31.013Z,12.77
2022-09-15T00:19:03.940Z,12.20
2022-09-15T00:21:38.138Z,10.80
2022-09-15T00:24:10.936Z,10.73
2022-09-15T00:26:42.712Z,10.98
2022-09-15T00:29:15.790Z,11.95
2022-09-15T00:31:47.518Z,11.80
2022-09-15T00:34:19.439Z,10.30
2022-09-15T00:36:51.230Z,10.25
2022-09-15T00:39:23.046Z,9.45
2022-09-15T00:41:54.837Z,7.75
2022-09-15T00:44:55.604Z,5.43
2022-09-15T00:47:32.513Z,6.18
2022-09-15T00:50:07.828Z,6.25
2022-09-15T00:52:45.193Z,4.43
2022-09-15T00:55:20.841Z,4.07
2022-09-15T00:57:56.048Z,6.65
2022-09-15T01:00:30.046Z,5.78
2022-09-15T01:03:02.465Z,3.78
2022-09-15T01:05:38.056Z,6.53
2022-09-15T01:08:14.847Z,6.90
2022-09-15T01:10:46.807Z,4.55
2022-09-15T01:13:18.591Z,5.18
2022-09-15T01:16:01.647Z,4.20
2022-09-15T01:18:53.090Z,4.57
2022-09-15T01:21:34.571Z,5.38
2022-09-15T01:24:41.319Z,6.40
2022-09-15T01:27:41.660Z,4.10
2022-09-15T01:30:17.910Z,4.72
2022-09-15T01:33:08.049Z,5.32
2022-09-15T01:36:01.341Z,4.70
2022-09-15T01:38:41.015Z,6.47
2022-09-15T01:41:17.230Z,4.63
2022-09-15T01:43:53.493Z,5.78
2022-09-15T01:46:30.362Z,4.63
2022-09-15T01:49:04.716Z,4.70
2022-09-15T01:51:39.632Z,3.45
2022-09-15T01:54:13.744Z,5.45
2022-09-15T01:56:45.619Z,2.80
2022-09-15T01:59:17.398Z,5.13
2022-09-15T02:01:57.392Z,4.78
2022-09-15T02:04:33.664Z,4.72
2022-09-15T02:07:11.765Z,3.50
2022-09-15T02:09:51.092Z,3.47
2022-09-15T02:12:34.013Z,3.50
2022-09-15T02:15:10.472Z,3.50
2022-09-15T02:17:46.129Z,3.38
2022-09-15T02:20:23.676Z,3.13
2022-09-15T02:22:57.315Z,9.52
2022-09-15T02:25:33.539Z,3.45
2022-09-15T02:28:08.951Z,5.90
2022-09-15T02:30:43.233Z,3.00
2022-09-15T02:33:21.207Z,3.50
2022-09-15T02:35:53.281Z,2.88
2022-09-15T02:38:30.048Z,6.57
2022-09-15T02:41:02.669Z,5.28
2022-09-15T02:43:34.478Z,4.57
2022-09-15T02:46:06.477Z,5.10
2022-09-15T02:48:39.594Z,4.18
2022-09-15T02:51:11.740Z,4.07
2022-09-15T02:53:44.499Z,8.43
2022-09-15T02:56:17.027Z,5.70
2022-09-15T02:58:48.796Z,3.25
2022-09-15T03:01:20.654Z,5.35
2022-09-15T03:03:53.772Z,3.90
2022-09-15T03:06:27.918Z,4.95
2022-09-15T03:09:00.283Z,6.05
2022-09-15T03:11:32.561Z,4.60
2022-09-15T03:14:06.528Z,5.68
2022-09-15T03:16:38.356Z,5.85
2022-09-15T03:19:12.314Z,6.30
2022-09-15T03:21:44.037Z,6.70
2022-09-15T03:24:15.821Z,7.85
2022-09-15T03:26:48.225Z,5.72
2022-09-15T03:29:20.018Z,7.90
2022-09-15T03:31:52.120Z,6.47
2022-09-15T03:34:25.342Z,9.18
2022-09-15T03:36:57.121Z,6.72
2022-09-15T03:39:28.858Z,6.30
2022-09-15T03:42:00.824Z,6.78
2022-09-15T03:44:32.616Z,7.05
2022-09-15T03:47:04.660Z,6.75
2022-09-15T03:49:38.532Z,8.02
2022-09-15T03:52:10.361Z,8.95
2022-09-15T03:54:42.100Z,7.38
2022-09-15T03:57:13.858Z,9.85
2022-09-15T03:59:45.678Z,8.63
2022-09-15T04:02:17.481Z,9.88
2022-09-15T04:04:50.557Z,8.10
2022-09-15T04:07:22.294Z,7.97
2022-09-15T04:09:54.345Z,7.53
2022-09-15T04:12:26.090Z,5.93
2022-09-15T04:14:57.958Z,6.38
2022-09-15T04:17:30.074Z,7.07
2022-09-15T04:20:03.505Z,7.00
2022-09-15T04:22:35.229Z,5.47
2022-09-15T04:25:09.267Z,5.43
2022-09-15T04:27:41.141Z,6.63
2022-09-15T04:30:13.310Z,10.02
2022-09-15T04:32:45.237Z,11.45
2022-09-15T04:35:18.697Z,4.35
2022-09-15T04:37:51.560Z,4.50
2022-09-15T04:40:23.361Z,4.30
2022-09-15T04:42:55.431Z,5.53
2022-09-15T04:45:27.269Z,4.25
2022-09-15T04:47:59.135Z,6.75
2022-09-15T04:50:33.876Z,3.03
2022-09-15T04:53:05.605Z,4.78
2022-09-15T04:55:37.397Z,3.70
2022-09-15T04:58:11.734Z,5.72
2022-09-15T05:00:43.663Z,4.65
2022-09-15T05:03:15.639Z,5.85
2022-09-15T05:05:48.995Z,7.68
2022-09-15T05:10:53.400Z,4.50
2022-09-15T05:13:25.153Z,6.72
2022-09-15T05:15:56.942Z,4.18
2022-09-15T05:18:31.542Z,4.68
2022-09-15T05:21:06.187Z,7.82
2022-09-15T05:23:38.300Z,7.07
2022-09-15T05:26:13.006Z,7.38
2022-09-15T05:28:44.955Z,5.53
2022-09-15T05:31:19.526Z,5.75
2022-09-15T05:33:52.649Z,7.90
2022-09-15T05:36:25.844Z,7.00
2022-09-15T05:38:58.207Z,5.20
2022-09-15T05:41:30.370Z,5.97
2022-09-15T05:44:02.622Z,7.57
2022-09-15T05:46:34.500Z,6.15
2022-09-15T05:49:08.716Z,6.32
2022-09-15T05:51:41.963Z,8.25
2022-09-15T05:54:13.774Z,9.18
2022-09-15T05:56:45.529Z,10.60
2022-09-15T05:59:17.573Z,8.27
2022-09-15T06:01:49.395Z,6.68
2022-09-15T06:04:21.167Z,11.30
2022-09-15T06:06:54.205Z,6.63
2022-09-15T06:09:26.337Z,5.78
2022-09-15T06:11:58.032Z,5.93
2022-09-15T06:14:29.811Z,8.10
2022-09-15T06:17:01.538Z,9.65
2022-09-15T06:19:33.429Z,6.60
2022-09-15T06:22:06.549Z,7.60
2022-09-15T06:24:38.275Z,7.60
2022-09-15T06:27:10.027Z,8.55
2022-09-15T06:29:41.825Z,7.07
2022-09-15T06:32:13.637Z,8.40
2022-09-15T06:34:46.098Z,9.57
2022-09-15T06:37:19.227Z,7.97
2022-09-15T06:39:51.185Z,8.70
2022-09-15T06:42:22.972Z,8.60
2022-09-15T06:44:54.737Z,10.27
2022-09-15T06:47:26.559Z,6.60
2022-09-15T06:49:59.658Z,8.68
2022-09-15T06:52:32.765Z,8.15
2022-09-15T06:55:05.361Z,9.50
2022-09-15T06:57:37.097Z,8.32
2022-09-15T07:00:10.143Z,11.95
2022-09-15T07:02:42.008Z,11.93
2022-09-15T07:05:13.941Z,9.77
2022-09-15T07:07:47.086Z,18.25
2022-09-15T07:10:18.847Z,9.52
2022-09-15T07:12:50.643Z,9.63
2022-09-15T07:15:24.896Z,10.02
2022-09-15T07:17:56.625Z,7.35
2022-09-15T07:20:28.381Z,6.88
2022-09-15T07:23:01.467Z,6.40
2022-09-15T07:25:33.230Z,8.65
2022-09-15T07:28:05.124Z,7.85
2022-09-15T07:30:36.913Z,6.68
2022-09-15T07:33:10.349Z,5.78
2022-09-15T07:35:42.397Z,8.00
2022-09-15T07:38:15.822Z,7.60
2022-09-15T07:43:20.833Z,7.85
2022-09-15T07:45:52.601Z,6.55
2022-09-15T07:48:26.556Z,4.32
2022-09-15T07:50:59.888Z,4.95
2022-09-15T07:53:33.067Z,6.88
2022-09-15T07:56:05.370Z,3.38
2022-09-15T07:58:37.157Z,2.90
2022-09-15T08:01:11.648Z,3.35
2022-09-15T08:03:46.259Z,0.95
2022-09-15T08:06:19.792Z,0.75
2022-09-15T08:08:57.685Z,1.95
2022-09-15T08:11:31.748Z,2.47
2022-09-15T08:14:03.540Z,4.05
2022-09-15T08:16:35.728Z,3.33
2022-09-15T08:19:07.732Z,2.03
2022-09-15T08:21:39.914Z,3.35
2022-09-15T08:24:13.095Z,3.47
2022-09-15T08:26:45.025Z,6.88
2022-09-15T08:29:17.790Z,4.35
2022-09-15T08:31:49.582Z,7.68
2022-09-15T08:34:21.631Z,4.93
2022-09-15T08:36:53.537Z,6.47
2022-09-15T08:39:26.705Z,6.85
2022-09-15T08:42:01.067Z,5.20
2022-09-15T08:44:40.173Z,7.32
2022-09-15T08:47:15.586Z,6.85
2022-09-15T08:49:58.576Z,5.60
2022-09-15T08:52:35.198Z,6.30
2022-09-15T08:55:15.730Z,10.40
2022-09-15T08:57:47.487Z,5.22
2022-09-15T09:00:19.379Z,7.38
2022-09-15T09:03:16.269Z,4.13
2022-09-15T09:05:56.043Z,9.43
2022-09-15T09:08:55.230Z,7.10
2022-09-15T09:11:40.814Z,6.03
2022-09-15T09:14:22.445Z,9.75
2022-09-15T09:17:07.873Z,7.68
2022-09-15T09:19:57.719Z,5.88
2022-09-15T09:22:33.050Z,6.38
2022-09-15T09:25:25.866Z,8.25
2022-09-15T09:28:01.822Z,8.17
2022-09-15T09:30:36.164Z,10.60
2022-09-15T09:33:30.391Z,7.45
2022-09-15T09:36:03.526Z,7.72
2022-09-15T09:38:38.379Z,9.13
2022-09-15T09:41:14.931Z,12.77
2022-09-15T09:43:49.543Z,9.70
2022-09-15T09:46:22.030Z,7.50
2022-09-15T09:49:00.907Z,9.20
2022-09-15T09:51:35.908Z,11.75
2022-09-15T09:54:12.828Z,13.13
2022-09-15T09:56:45.681Z,12.70
2022-09-15T09:59:39.650Z,10.13
2022-09-15T10:04:49.075Z,12.15
2022-09-15T10:07:24.446Z,11.43
2022-09-15T10:09:58.654Z,10.38
2022-09-15T10:12:32.910Z,12.75
2022-09-15T10:15:20.410Z,17.77
2022-09-15T10:17:53.226Z,13.70
2022-09-15T10:20:32.263Z,7.63
2022-09-15T10:23:06.695Z,11.73
2022-09-15T10:28:30.339Z,15.95
2022-09-15T10:31:06.326Z,13.10
2022-09-15T10:33:40.326Z,17.17
2022-09-15T10:36:14.723Z,18.95
2022-09-15T10:38:48.793Z,13.30
2022-09-15T10:41:27.270Z,17.27
2022-09-15T10:44:19.579Z,13.02
2022-09-15T10:47:02.991Z,14.77
2022-09-15T10:49:49.781Z,13.73
2022-09-15T10:52:29.377Z,13.13
2022-09-15T10:55:42.143Z,14.05
2022-09-15T10:58:31.070Z,15.10
2022-09-15T11:01:20.914Z,15.82
2022-09-15T11:04:19.549Z,15.52
2022-09-15T11:07:00.101Z,17.02
2022-09-15T11:09:35.127Z,12.85
2022-09-15T11:12:25.880Z,12.38
2022-09-15T11:15:16.810Z,12.57
2022-09-15T11:17:59.899Z,17.92
2022-09-15T11:21:00.009Z,15.27
2022-09-15T11:23:34.713Z,17.33
2022-09-15T11:26:13.459Z,18.35
2022-09-15T11:28:49.146Z,19.95
2022-09-15T11:31:25.509Z,18.10
2022-09-15T11:34:01.915Z,22.60
2022-09-15T11:36:40.540Z,15.38
2022-09-15T11:39:18.980Z,21.27
2022-09-15T11:41:56.616Z,21.63
2022-09-15T11:44:32.447Z,20.48
2022-09-15T11:47:16.229Z,20.83
2022-09-15T11:49:52.817Z,17.10
2022-09-15T11:52:42.945Z,11.63
2022-09-15T11:55:23.179Z,11.57
2022-09-15T11:58:05.189Z,12.43
2022-09-15T12:00:43.281Z,9.68
2022-09-15T12:10:30.304Z,13.32
2022-09-15T12:13:03.387Z,10.48
2022-09-15T12:57:56.661Z,8.63
2022-09-15T13:05:14.134Z,6.10
2022-09-15T13:08:56.593Z,6.18
2022-09-15T13:16:05.363Z,5.00
2022-09-15T13:19:24.229Z,6.50
2022-09-15T13:23:07.640Z,6.10
2022-09-15T13:30:09.533Z,4.05
2022-09-15T13:33:02.200Z,4.00
2022-09-15T13:36:09.723Z,4.43
2022-09-15T13:39:28.222Z,5.95
2022-09-15T13:42:59.756Z,4.20
2022-09-15T13:46:45.324Z,3.47
2022-09-15T13:49:52.257Z,5.68
2022-09-15T13:53:32.586Z,4.03
2022-09-15T13:56:27.725Z,5.22
2022-09-15T13:59:24.117Z,2.92
2022-09-15T14:27:51.090Z,5.00
2022-09-15T14:30:45.074Z,3.00
2022-09-15T14:33:38.519Z,2.65
2022-09-15T14:36:41.484Z,4.25
2022-09-15T14:42:44.618Z,3.92
2022-09-15T14:45:57.920Z,4.63
2022-09-15T14:48:30.687Z,4.05
2022-09-15T14:51:08.848Z,3.55
2022-09-15T14:53:43.198Z,5.15
2022-09-15T14:56:19.149Z,4.70
2022-09-15T14:58:56.042Z,3.17
2022-09-15T15:01:33.649Z,4.85
2022-09-15T15:04:14.823Z,3.33
2022-09-15T15:06:55.954Z,4.63
2022-09-15T15:09:32.880Z,5.72
2022-09-15T15:12:10.443Z,8.65
2022-09-15T15:14:43.929Z,4.43
2022-09-15T15:17:33.673Z,5.72
2022-09-15T15:20:18.493Z,7.57
2022-09-15T15:23:15.534Z,8.98
2022-09-15T15:25:47.562Z,6.75
2022-09-15T15:28:31.102Z,6.47
2022-09-15T15:31:12.996Z,6.22
2022-09-15T15:33:49.088Z,6.60
2022-09-15T15:36:23.868Z,7.18
2022-09-15T15:38:57.763Z,7.25
2022-09-15T15:41:31.288Z,8.63
2022-09-15T15:44:08.190Z,8.60
2022-09-15T15:47:03.406Z,6.75
2022-09-15T15:49:42.341Z,7.20
2022-09-15T15:52:23.157Z,6.53
2022-09-15T15:54:54.877Z,5.72
2022-09-15T15:57:30.249Z,7.13
2022-09-15T16:00:02.393Z,9.45
2022-09-15T16:02:35.484Z,11.23
2022-09-15T16:05:07.682Z,9.13
2022-09-15T16:07:40.111Z,8.95
2022-09-15T16:10:16.068Z,9.70
2022-09-15T16:12:48.080Z,8.63
2022-09-15T16:15:21.541Z,8.55
2022-09-15T16:17:54.723Z,9.10
2022-09-15T16:20:28.288Z,9.52
2022-09-15T16:23:00.200Z,8.77
2022-09-15T16:25:36.012Z,10.32
2022-09-15T16:28:07.789Z,8.77
2022-09-15T16:30:39.532Z,9.35
2022-09-15T16:33:15.471Z,8.05
2022-09-15T16:35:51.102Z,12.48
2022-09-15T16:38:25.824Z,7.35
2022-09-15T16:40:57.709Z,10.30
2022-09-15T16:43:29.482Z,8.55
2022-09-15T16:46:01.701Z,11.00
2022-09-15T16:48:35.477Z,7.05
2022-09-15T16:54:02.751Z,9.00
2022-09-15T16:56:34.540Z,11.27
2022-09-15T16:59:06.382Z,9.13
2022-09-15T17:01:38.247Z,9.30
2022-09-15T17:04:14.803Z,10.35
2022-09-15T17:06:46.649Z,12.07
2022-09-15T17:09:18.378Z,9.18
2022-09-15T17:11:50.204Z,7.20
2022-09-15T17:14:21.942Z,8.63
2022-09-15T17:16:53.765Z,8.57
2022-09-15T17:19:26.842Z,9.90
2022-09-15T17:21:58.613Z,9.52
2022-09-15T17:24:30.357Z,9.80
2022-09-15T17:27:02.159Z,10.38
2022-09-15T17:29:34.245Z,10.02
2022-09-15T17:32:06.008Z,7.38
2022-09-15T17:34:39.125Z,8.05
2022-09-15T17:37:11.180Z,7.43
2022-09-15T17:39:43.161Z,8.07
2022-09-15T17:42:14.873Z,6.30
2022-09-15T17:44:46.614Z,10.07
2022-09-15T17:47:18.581Z,6.90
2022-09-15T17:49:51.704Z,7.57
2022-09-15T17:52:24.587Z,12.60
2022-09-15T17:54:56.427Z,7.55
2022-09-15T17:57:28.161Z,8.65
2022-09-15T17:59:59.889Z,8.27
2022-09-15T18:02:32.008Z,6.38
2022-09-15T18:05:06.624Z,6.88
2022-09-15T18:07:38.375Z,8.68
2022-09-15T18:10:11.331Z,6.97
2022-09-15T18:12:46.828Z,7.30
2022-09-15T18:15:22.249Z,7.68
2022-09-15T18:17:56.470Z,8.73
2022-09-15T18:20:31.439Z,7.18
2022-09-15T18:23:03.236Z,7.88
2022-09-15T18:25:36.843Z,8.20
2022-09-15T18:28:09.139Z,9.50
2022-09-15T18:30:42.570Z,7.63
2022-09-15T18:35:49.169Z,8.30
2022-09-15T18:38:22.400Z,7.03
2022-09-15T18:40:56.338Z,7.95
2022-09-15T18:43:28.350Z,7.03
2022-09-15T18:46:01.937Z,7.82
2022-09-15T18:48:33.767Z,8.10
2022-09-15T18:51:09.629Z,7.65
2022-09-15T18:53:41.407Z,6.25
2022-09-15T18:56:14.685Z,8.65
2022-09-15T18:58:46.486Z,7.13
2022-09-15T19:01:18.371Z,7.93
2022-09-15T19:03:50.201Z,6.57
2022-09-15T19:06:23.349Z,7.32
2022-09-15T19:08:55.138Z,8.85
2022-09-15T19:11:29.140Z,7.05
2022-09-15T19:14:01.161Z,6.25
2022-09-15T19:16:53.924Z,6.47
2022-09-15T19:19:25.231Z,10.35
2022-09-15T19:21:58.389Z,5.50
2022-09-15T19:24:33.719Z,6.43
2022-09-15T19:27:08.298Z,5.68
2022-09-15T19:29:40.530Z,13.40
2022-09-15T19:32:14.554Z,6.30
2022-09-15T19:34:47.259Z,7.78
2022-09-15T19:37:21.935Z,6.78
2022-09-15T19:39:54.829Z,7.72
2022-09-15T19:42:26.748Z,10.02
2022-09-15T19:44:58.511Z,11.25
2022-09-15T19:47:30.333Z,10.65
2022-09-15T19:50:02.312Z,7.38
2022-09-15T19:52:35.727Z,9.80
2022-09-15T19:55:09.846Z,9.38
2022-09-15T19:57:42.546Z,11.18
2022-09-15T20:00:15.135Z,14.10
2022-09-15T20:02:48.536Z,16.02
2022-09-15T20:07:53.344Z,11.25
2022-09-15T20:10:25.120Z,11.93
2022-09-15T20:12:56.895Z,9.48
2022-09-15T20:15:29.737Z,7.38
2022-09-15T20:18:02.246Z,8.70
2022-09-15T20:20:34.517Z,12.47
2022-09-15T20:23:07.666Z,9.43
2022-09-15T20:25:39.391Z,9.20
2022-09-15T20:28:11.361Z,8.48
2022-09-15T20:30:43.157Z,6.60
2022-09-15T20:33:14.975Z,6.88
2022-09-15T20:35:46.882Z,6.35
2022-09-15T20:38:20.654Z,7.32
2022-09-15T20:40:54.701Z,10.23
2022-09-15T20:43:26.778Z,10.65
2022-09-15T20:46:00.445Z,6.45
2022-09-15T20:48:34.328Z,7.60
2022-09-15T20:51:08.092Z,6.47
2022-09-15T20:53:43.246Z,9.73
2022-09-15T20:56:16.393Z,7.93
2022-09-15T20:58:48.188Z,9.00
2022-09-15T21:01:21.860Z,7.22
2022-09-15T21:03:55.308Z,7.43
2022-09-15T21:09:00.998Z,9.00
2022-09-15T21:11:33.188Z,6.70
2022-09-15T21:14:05.451Z,7.50
2022-09-15T21:16:37.323Z,7.93
2022-09-15T21:19:09.868Z,7.10
2022-09-15T21:21:41.707Z,7.17
2022-09-15T21:24:14.879Z,6.43
2022-09-15T21:27:05.260Z,7.50
2022-09-15T21:29:37.134Z,6.10
2022-09-15T21:32:09.182Z,5.93
2022-09-15T21:34:41.051Z,7.00
2022-09-15T21:37:12.908Z,6.22
2022-09-15T21:39:46.074Z,6.32
2022-09-15T21:42:18.486Z,6.22
2022-09-15T21:44:50.901Z,8.55
2022-09-15T21:47:22.739Z,7.10
2022-09-15T21:49:55.131Z,7.70
2022-09-15T21:52:27.280Z,8.27
2022-09-15T21:55:00.482Z,9.40
2022-09-15T21:57:32.351Z,10.50
2022-09-15T22:00:05.411Z,7.82
2022-09-15T22:02:37.170Z,10.00
2022-09-15T22:05:09.195Z,12.85
2022-09-15T22:07:41.076Z,8.93
2022-09-15T22:10:14.327Z,14.23
2022-09-15T22:12:46.076Z,8.50
2022-09-15T22:15:17.863Z,8.48
2022-09-15T22:17:49.761Z,13.88
2022-09-15T22:20:22.114Z,10.40
2022-09-15T22:22:54.131Z,9.95
2022-09-15T22:25:27.462Z,9.13
2022-09-15T22:27:59.224Z,8.57
2022-09-15T22:30:30.984Z,8.55
2022-09-15T22:33:02.761Z,9.27
2022-09-15T22:35:34.636Z,9.40
2022-09-15T22:38:07.179Z,12.23
2022-09-15T22:40:40.356Z,8.30
2022-09-15T22:43:12.320Z,8.85
2022-09-15T22:45:44.245Z,9.35
2022-09-15T22:48:17.269Z,9.35
2022-09-15T22:50:49.138Z,9.35
2022-09-15T22:53:23.356Z,9.45
2022-09-15T22:56:05.901Z,10.63
2022-09-15T22:58:40.607Z,9.80
2022-09-15T23:01:14.648Z,10.27
2022-09-15T23:03:50.095Z,11.20
2022-09-15T23:06:22.812Z,10.73
2022-09-15T23:08:56.250Z,10.68
2022-09-15T23:14:02.598Z,10.43
2022-09-15T23:16:34.658Z,9.90
2022-09-15T23:19:06.840Z,13.82
2022-09-15T23:21:38.811Z,9.88
2022-09-15T23:24:12.482Z,10.60
2022-09-15T23:26:45.733Z,10.02
2022-09-15T23:29:17.513Z,11.43
2022-09-15T23:31:49.323Z,10.85
2022-09-15T23:34:21.401Z,8.77
2022-09-15T23:36:53.147Z,8.57
2022-09-15T23:39:25.067Z,9.65
2022-09-15T23:41:58.214Z,10.95
2022-09-15T23:44:30.013Z,9.85
2022-09-15T23:47:01.915Z,8.73
2022-09-15T23:49:33.751Z,12.38
2022-09-15T23:52:05.600Z,11.55
2022-09-15T23:54:37.389Z,10.68
2022-09-15T23:57:11.699Z,12.70
2022-09-15T23:59:43.510Z,11.80
